Flight Track Log - Related Links

Times and Time Zones

All times are in EDT time to prevent confusion due to time zone crossing. See the EJA982 flight status page for this flight to view local times or setup timezone preferences in your user account.

Time Position Orientation Groundspeed Altitude Reporting Facility
EDT Latitude Longitude Course Direction KTS MPH feet Rate Location/Type
Tue 06:15:39 PM 38.6500 -121.5667 152° Southeast 206 237 5,500  Level Northern Cal TRACON
Tue 06:16:33 PM 38.6167 -121.5167 130° Southeast 234 269 8,900 2,368 Climbing Northern Cal TRACON
Tue 06:17:33 PM 38.5500 -121.4333 136° Southeast 330 380 10,000 813 Climbing Northern Cal TRACON
Tue 06:18:09 PM 38.5147 -121.3725 127° Southeast 369 425 10,200 619 Climbing Oakland Center
Tue 06:19:10 PM 38.4397 -121.2694 133° Southeast 398 458 11,000 393 Climbing Oakland Center
Tue 06:20:11 PM 38.3600 -121.1683 135° Southeast 397 457 11,000  Level Oakland Center
Tue 06:20:33 PM 38.3167 -121.1500 162° South 383 441 11,000  Level Northern Cal TRACON
Tue 06:21:00 PM 38.2497 -121.4276 152° Southeast  Level FlightAware Approximate
Tue 06:21:33 PM 38.2167 -121.1667 187° South 368 423 11,000  Level Northern Cal TRACON
Tue 06:22:33 PM 38.1333 -121.2500 218° Southwest 377 434 10,100 -476 Descending Northern Cal TRACON
Tue 06:23:39 PM 38.0500 -121.3333 218° Southwest 393 452 10,000 -58 Descending Northern Cal TRACON
Tue 06:24:17 PM 38.0122 -121.3939 232° Southwest 391 450 10,000  Level Oakland Center
Tue 06:25:18 PM 37.9367 -121.5192 233° Southwest 386 444 10,000 -98 Level Oakland Center
Tue 06:26:19 PM 37.8808 -121.6131 233° Southwest 330 380 9,800 -519 Descending Oakland Center
Tue 06:26:39 PM 37.8667 -121.6500 244° Southwest 286 329 9,300 -1,350 Descending Northern Cal TRACON
Tue 06:27:39 PM 37.8167 -121.7167 226° Southwest 264 304 8,000 -1,000 Descending Northern Cal TRACON
Tue 06:28:45 PM 37.7667 -121.8000 233° Southwest 248 285 7,200 -950 Descending Northern Cal TRACON
Tue 06:29:39 PM 37.7333 -121.8500 230° Southwest 230 265 6,100 -947 Descending Northern Cal TRACON
Tue 06:30:39 PM 37.6833 -121.8667 195° South 208 239 5,400 -1,009 Descending Northern Cal TRACON
Tue 06:31:26 PM 37.6475 -121.8892 206° Southwest 205 236 4,300 -778 Descending Oakland Center
Tue 06:32:27 PM 37.6406 -121.9517 262° West 204 235 4,000 -146 Descending Oakland Center
Tue 06:33:29 PM 37.6597 -122.0086 293° West 183 211 4,000 -537 Level Oakland Center
Tue 06:34:30 PM 37.6800 -122.0725 292° West 168 193 2,900 -1,073 Descending Oakland Center
Tue 06:35:32 PM 37.6975 -122.1231 294° West 162 186 1,800 -1,070 Descending Oakland Center
Tue 06:36:39 PM 37.7167 -122.1667 299° West 127 146 600 -803 Descending Northern Cal TRACON
Tue 06:37:39 PM 37.7333 -122.2167 293° West 119 137 100 -500 Descending Northern Cal TRACON
Tue 06:39:00 PM 37.7167 -122.2167 270° West  Level FlightAware Approximate
Tue 06:46:00 PM 37.7213 -122.2207 270° West  Level Estimated

Login

Don't have an account? Register now (free) for customized features, flight alerts, and more!